createdAt,value
2023-01-09T00:00:41.719Z,99239.63
2023-01-09T00:03:09.466Z,99243.09
2023-01-09T00:05:36.893Z,99245.78
2023-01-09T00:08:04.428Z,99250.09
2023-01-09T00:10:32.124Z,99251.78
2023-01-09T00:12:59.651Z,99258.06
2023-01-09T00:15:27.130Z,99246.75
2023-01-09T00:17:54.797Z,99247.63
2023-01-09T00:20:22.169Z,99242.31
2023-01-09T00:22:49.613Z,99244.94
2023-01-09T00:25:17.252Z,99247.56
2023-01-09T00:27:44.644Z,99244.13
2023-01-09T00:30:12.384Z,99235.53
2023-01-09T00:32:40.545Z,99231.13
2023-01-09T00:35:09.326Z,99229.31
2023-01-09T00:37:36.766Z,99235.44
2023-01-09T00:40:04.680Z,99235.41
2023-01-09T00:42:33.741Z,99233.75
2023-01-09T00:45:04.664Z,99233.72
2023-01-09T00:47:42.852Z,99235.56
2023-01-09T00:50:14.806Z,99225.09
2023-01-09T00:52:43.015Z,99222.56
2023-01-09T00:55:10.490Z,99217.38
2023-01-09T00:57:37.958Z,99225.09
2023-01-09T01:00:06.547Z,99222.53
2023-01-09T01:02:33.964Z,99211.31
2023-01-09T01:05:20.010Z,99218.16
2023-01-09T01:07:47.640Z,99205.06
2023-01-09T01:10:22.803Z,99204.19
2023-01-09T01:12:51.243Z,99206.88
2023-01-09T01:15:19.512Z,99196.47
2023-01-09T01:17:47.296Z,99198.25
2023-01-09T01:20:16.970Z,99209.44
2023-01-09T01:22:44.437Z,99199.06
2023-01-09T01:25:13.339Z,99206.97
2023-01-09T01:27:41.421Z,99194.78
2023-01-09T01:30:11.170Z,99194.78
2023-01-09T01:32:38.793Z,99194.69
2023-01-09T01:35:07.557Z,99182.56
2023-01-09T01:37:36.095Z,99173.09
2023-01-09T01:40:04.700Z,99172.13
2023-01-09T01:42:32.627Z,99169.44
2023-01-09T01:45:06.537Z,99166.72
2023-01-09T01:47:49.414Z,99166.66
2023-01-09T01:50:34.780Z,99158.91
2023-01-09T01:53:17.671Z,99151.81
2023-01-09T01:55:45.724Z,99149.19
2023-01-09T01:58:14.750Z,99147.13
2023-01-09T02:00:47.220Z,99146.38
2023-01-09T02:03:19.533Z,99138.50
2023-01-09T02:05:47.404Z,99135.94
2023-01-09T02:08:15.173Z,99130.53
2023-01-09T02:10:42.725Z,99128.78
2023-01-09T02:13:11.116Z,99122.59
2023-01-09T02:15:41.524Z,99121.59
2023-01-09T02:18:27.477Z,99119.66
2023-01-09T02:21:36.711Z,99114.44
2023-01-09T02:24:34.004Z,99110.09
2023-01-09T02:27:24.044Z,99109.16
2023-01-09T02:30:10.230Z,99103.88
2023-01-09T02:33:14.995Z,99108.09
2023-01-09T02:35:52.753Z,99102.09
2023-01-09T02:38:36.999Z,99100.31
2023-01-09T02:41:15.973Z,99101.19
2023-01-09T02:43:43.607Z,99106.12
2023-01-09T02:46:22.067Z,99094.03
2023-01-09T02:48:51.119Z,99088.94
2023-01-09T02:51:37.018Z,99089.78
2023-01-09T02:54:20.472Z,99087.16
2023-01-09T02:56:57.028Z,99082.66
2023-01-09T02:59:34.618Z,99080.97
2023-01-09T03:02:09.915Z,99071.34
2023-01-09T03:05:01.591Z,99062.66
2023-01-09T03:07:31.979Z,99056.63
2023-01-09T03:10:10.621Z,99063.47
2023-01-09T03:12:38.411Z,99068.69
2023-01-09T03:15:07.218Z,99065.13
2023-01-09T03:17:39.730Z,99064.22
2023-01-09T03:20:09.417Z,99067.81
2023-01-09T03:22:36.905Z,99064.22
2023-01-09T03:25:04.579Z,99063.34
2023-01-09T03:27:32.479Z,99054.66
2023-01-09T03:29:59.811Z,99057.34
2023-01-09T03:32:27.927Z,99058.19
2023-01-09T03:34:55.567Z,99050.41
2023-01-09T03:37:22.929Z,99051.22
2023-01-09T03:39:50.281Z,99049.50
2023-01-09T03:42:17.952Z,99052.97
2023-01-09T03:44:45.297Z,99050.31
2023-01-09T03:47:12.751Z,99040.69
2023-01-09T03:49:40.606Z,99028.41
2023-01-09T03:52:07.962Z,99031.06
2023-01-09T03:54:35.392Z,99031.16
2023-01-09T03:57:03.118Z,99042.50
2023-01-09T03:59:30.517Z,99040.81
2023-01-09T04:01:58.000Z,99029.47
2023-01-09T04:04:25.777Z,99044.19
2023-01-09T04:06:53.184Z,99031.19
2023-01-09T04:09:20.655Z,99029.38
2023-01-09T04:11:48.318Z,99038.97
2023-01-09T04:14:16.333Z,99029.38
2023-01-09T04:16:43.832Z,99025.84
2023-01-09T04:19:11.535Z,99031.03
2023-01-09T04:21:38.931Z,99037.88
2023-01-09T04:24:06.660Z,99037.97
2023-01-09T04:26:34.334Z,99043.19
2023-01-09T04:29:01.807Z,99040.44
2023-01-09T04:31:29.216Z,99046.56
2023-01-09T04:33:56.904Z,99051.19
2023-01-09T04:36:24.300Z,99041.44
2023-01-09T04:38:51.630Z,99038.78
2023-01-09T04:41:38.062Z,99038.97
2023-01-09T04:44:05.663Z,99050.44
2023-01-09T04:46:33.296Z,99036.59
2023-01-09T04:49:00.690Z,99038.41
2023-01-09T04:51:28.033Z,99035.69
2023-01-09T04:53:55.643Z,99033.94
2023-01-09T04:56:23.100Z,99040.81
2023-01-09T04:58:50.574Z,99037.28
2023-01-09T05:01:18.338Z,99033.00
2023-01-09T05:03:45.709Z,99033.94
2023-01-09T05:06:13.197Z,99031.13
2023-01-09T05:08:40.843Z,99024.94
2023-01-09T05:11:08.307Z,99030.19
2023-01-09T05:13:35.704Z,99027.69
2023-01-09T05:16:03.410Z,99026.84
2023-01-09T05:18:30.912Z,99022.50
2023-01-09T05:20:58.253Z,99014.78
2023-01-09T05:23:25.937Z,99022.69
2023-01-09T05:25:53.305Z,99008.66
2023-01-09T05:28:20.644Z,99010.66
2023-01-09T05:30:48.567Z,99005.38
2023-01-09T05:33:16.001Z,99017.53
2023-01-09T05:35:43.574Z,99017.56
2023-01-09T05:38:11.780Z,99022.81
2023-01-09T05:40:40.535Z,99026.13
2023-01-09T05:43:08.570Z,99027.69
2023-01-09T05:45:36.340Z,99024.25
2023-01-09T05:48:03.858Z,99025.28
2023-01-09T05:50:31.273Z,99022.50
2023-01-09T05:52:58.919Z,99026.34
2023-01-09T05:55:26.329Z,99020.91
2023-01-09T05:57:53.678Z,99022.81
2023-01-09T06:00:21.483Z,99014.03
2023-01-09T06:02:49.155Z,99015.88
2023-01-09T06:05:16.554Z,99022.69
2023-01-09T06:07:43.972Z,99020.09
2023-01-09T06:10:13.192Z,99018.44
2023-01-09T06:12:41.849Z,99028.94
2023-01-09T06:15:09.554Z,99033.25
2023-01-09T06:17:37.158Z,99029.69
2023-01-09T06:20:05.087Z,99035.06
2023-01-09T06:22:32.476Z,99035.91
2023-01-09T06:25:00.153Z,99033.31
2023-01-09T06:27:27.595Z,99034.94
2023-01-09T06:29:54.974Z,99037.41
2023-01-09T06:32:22.645Z,99040.16
2023-01-09T06:34:50.307Z,99038.53
2023-01-09T06:37:17.709Z,99043.91
2023-01-09T06:39:45.416Z,99036.94
2023-01-09T06:42:12.748Z,99044.78
2023-01-09T06:44:40.206Z,99045.94
2023-01-09T06:47:07.858Z,99043.31
2023-01-09T06:49:35.577Z,99047.91
2023-01-09T06:52:05.725Z,99042.66
2023-01-09T06:54:34.469Z,99042.59
2023-01-09T06:57:01.910Z,99038.59
2023-01-09T06:59:29.290Z,99029.81
2023-01-09T07:01:57.212Z,99030.66
2023-01-09T07:04:24.782Z,99029.72
2023-01-09T07:06:52.206Z,99041.00
2023-01-09T07:09:19.915Z,99035.81
2023-01-09T07:11:47.812Z,99037.62
2023-01-09T07:14:15.193Z,99034.94
2023-01-09T07:16:43.088Z,99029.66
2023-01-09T07:19:10.531Z,99032.28
2023-01-09T07:21:37.933Z,99040.84
2023-01-09T07:24:05.804Z,99039.91
2023-01-09T07:26:33.173Z,99032.03
2023-01-09T07:29:00.563Z,99037.12
2023-01-09T07:31:28.350Z,99037.25
2023-01-09T07:33:55.827Z,99030.25
2023-01-09T07:36:23.178Z,99025.03
2023-01-09T07:38:50.812Z,99023.28
2023-01-09T07:41:18.213Z,99008.38
2023-01-09T07:43:45.577Z,99016.19
2023-01-09T07:46:13.196Z,99004.97
2023-01-09T07:48:40.583Z,99002.94
2023-01-09T07:51:07.988Z,99012.53
2023-01-09T07:53:35.629Z,99012.78
2023-01-09T07:56:03.029Z,99001.94
2023-01-09T07:58:30.385Z,99000.28
2023-01-09T08:00:58.064Z,99013.94
2023-01-09T08:03:26.912Z,99000.38
2023-01-09T08:05:54.317Z,98992.84
2023-01-09T08:08:22.721Z,98980.75
2023-01-09T08:10:50.434Z,98977.56
2023-01-09T08:13:17.959Z,98990.69
2023-01-09T08:15:45.425Z,99000.09
2023-01-09T08:18:13.131Z,99019.56
2023-01-09T08:20:40.509Z,99037.59
2023-01-09T08:23:07.880Z,99014.56
2023-01-09T08:25:35.568Z,99014.88
2023-01-09T08:28:03.005Z,99013.69
2023-01-09T08:30:30.412Z,99001.09
2023-01-09T08:32:58.105Z,98995.84
2023-01-09T08:35:25.467Z,99006.44
2023-01-09T08:37:52.924Z,99005.44
2023-01-09T08:40:20.603Z,99008.00
2023-01-09T08:43:06.659Z,99003.75
2023-01-09T08:45:53.157Z,99008.06
2023-01-09T08:48:20.529Z,99002.00
2023-01-09T08:50:48.379Z,99005.78
2023-01-09T08:53:15.820Z,99009.19
2023-01-09T08:55:43.558Z,99008.25
2023-01-09T08:58:11.275Z,99004.91
2023-01-09T09:00:38.692Z,98992.03
2023-01-09T09:03:06.145Z,98987.81
2023-01-09T09:05:33.904Z,98994.72
2023-01-09T09:08:02.658Z,98989.63
2023-01-09T09:10:30.840Z,98989.44
2023-01-09T09:12:59.343Z,98988.56
2023-01-09T09:15:27.869Z,98989.44
2023-01-09T09:18:03.099Z,98991.22
2023-01-09T09:20:32.759Z,98977.47
2023-01-09T09:23:00.185Z,98978.38
2023-01-09T09:25:27.980Z,98977.34
2023-01-09T09:28:00.861Z,98976.62
2023-01-09T09:30:28.291Z,98970.50
2023-01-09T09:32:55.947Z,98974.00
2023-01-09T09:35:23.471Z,98970.66
2023-01-09T09:37:56.053Z,98965.41
2023-01-09T09:41:01.197Z,98966.34
2023-01-09T09:43:56.389Z,98956.94
2023-01-09T09:47:12.176Z,98957.78
2023-01-09T09:49:55.227Z,98956.19
2023-01-09T09:52:47.767Z,98952.62
2023-01-09T09:55:29.328Z,98964.00
2023-01-09T09:57:58.785Z,98951.91
2023-01-09T10:00:26.242Z,98966.50
2023-01-09T10:03:02.530Z,98959.63
2023-01-09T10:05:50.322Z,98958.88
2023-01-09T10:08:57.134Z,98962.16
2023-01-09T10:11:32.899Z,98955.06
2023-01-09T10:14:13.163Z,98947.47
2023-01-09T10:17:08.410Z,98943.13
2023-01-09T10:19:39.049Z,98955.31
2023-01-09T10:22:38.572Z,98948.44
2023-01-09T10:25:16.520Z,98942.44
2023-01-09T10:28:06.640Z,98931.16
2023-01-09T10:30:45.232Z,98928.56
2023-01-09T10:33:30.763Z,98935.53
2023-01-09T10:36:11.461Z,98932.13
2023-01-09T10:38:41.056Z,98927.03
2023-01-09T10:41:22.440Z,98915.72
2023-01-09T10:44:18.542Z,98912.28
2023-01-09T10:46:54.590Z,98903.72
2023-01-09T10:49:23.573Z,98903.66
2023-01-09T10:51:53.329Z,98888.91
2023-01-09T10:54:23.573Z,98890.50
2023-01-09T10:56:56.335Z,98886.22
2023-01-09T10:59:24.483Z,98871.44
2023-01-09T11:01:53.648Z,98870.63
2023-01-09T11:04:30.246Z,98868.75
2023-01-09T11:07:21.801Z,98865.25
2023-01-09T11:10:08.232Z,98860.97
2023-01-09T11:12:36.555Z,98860.09
2023-01-09T11:15:16.111Z,98855.84
2023-01-09T11:17:43.904Z,98851.44
2023-01-09T11:20:21.810Z,98863.59
2023-01-09T11:22:51.599Z,98865.34
2023-01-09T11:25:21.614Z,98859.22
2023-01-09T11:28:01.399Z,98858.06
2023-01-09T11:30:29.782Z,98844.31
2023-01-09T11:32:58.575Z,98841.94
2023-01-09T11:35:34.114Z,98842.66
2023-01-09T11:38:06.712Z,98845.44
2023-01-09T11:40:46.166Z,98843.69
2023-01-09T11:43:19.798Z,98834.16
2023-01-09T11:46:01.206Z,98835.78
2023-01-09T11:48:29.652Z,98841.66
2023-01-09T11:50:58.897Z,98838.03
2023-01-09T11:53:27.191Z,98838.28
2023-01-09T11:56:01.221Z,98832.25
2023-01-09T11:58:33.068Z,98838.19
2023-01-09T12:01:31.490Z,98832.19
2023-01-09T12:04:11.387Z,98832.09
2023-01-09T12:07:16.170Z,98829.53
2023-01-09T12:10:19.064Z,98807.75
2023-01-09T12:12:52.946Z,98795.53
2023-01-09T12:15:24.742Z,98802.56
2023-01-09T12:18:29.652Z,98803.22
2023-01-09T12:21:34.431Z,98803.47
2023-01-09T12:24:13.972Z,98811.25
2023-01-09T12:27:00.421Z,98814.63
2023-01-09T12:29:40.827Z,98796.37
2023-01-09T12:32:13.868Z,98796.28
2023-01-09T12:35:04.467Z,98800.47
2023-01-09T12:37:59.282Z,98791.78
2023-01-09T12:40:42.979Z,98791.69
2023-01-09T12:43:20.280Z,98786.69
2023-01-09T12:46:09.135Z,98781.53
2023-01-09T12:49:06.660Z,98784.13
2023-01-09T12:51:53.031Z,98782.41
2023-01-09T12:54:30.315Z,98775.25
2023-01-09T12:57:01.401Z,98765.75
2023-01-09T12:59:34.786Z,98763.25
2023-01-09T13:02:35.211Z,98768.41
2023-01-09T13:05:25.505Z,98760.63
2023-01-09T13:08:32.201Z,98759.84
2023-01-09T13:11:19.895Z,98751.16
2023-01-09T13:14:22.273Z,98756.16
2023-01-09T13:16:52.162Z,98757.16
2023-01-09T13:19:25.290Z,98759.59
2023-01-09T13:21:53.578Z,98763.16
2023-01-09T13:24:39.381Z,98768.16
2023-01-09T13:27:14.644Z,98781.34
2023-01-09T13:29:44.553Z,98783.09
2023-01-09T13:32:15.149Z,98779.53
2023-01-09T13:34:45.673Z,98782.97
2023-01-09T13:37:26.325Z,98781.28
2023-01-09T13:40:02.167Z,98778.69
2023-01-09T13:42:47.833Z,98771.81
2023-01-09T13:45:17.940Z,98774.37
2023-01-09T13:47:45.774Z,98781.87
2023-01-09T13:50:27.083Z,98789.78
2023-01-09T13:52:54.870Z,98781.97
2023-01-09T13:55:26.122Z,98778.72
2023-01-09T13:58:05.544Z,98781.91
2023-01-09T14:00:36.115Z,98775.88
2023-01-09T14:03:08.470Z,98778.53
2023-01-09T14:05:35.816Z,98783.78
2023-01-09T14:08:18.755Z,98770.72
2023-01-09T14:10:48.721Z,98779.28
2023-01-09T14:13:18.833Z,98787.78
2023-01-09T14:15:47.647Z,98791.50
2023-01-09T14:18:30.524Z,98790.16
2023-01-09T14:23:52.859Z,98789.37
2023-01-09T14:26:24.535Z,98780.75
2023-01-09T14:28:52.120Z,98787.78
2023-01-09T14:31:37.774Z,98776.41
2023-01-09T14:34:34.154Z,98771.28
2023-01-09T14:37:02.405Z,98773.00
2023-01-09T14:39:32.067Z,98762.50
2023-01-09T14:42:09.180Z,98765.94
2023-01-09T14:44:42.998Z,98765.94
2023-01-09T14:47:51.778Z,98769.56
2023-01-09T14:50:22.298Z,98775.91
2023-01-09T14:52:55.600Z,98779.19
2023-01-09T14:55:28.887Z,98777.44
2023-01-09T14:57:57.039Z,98779.19
2023-01-09T15:00:25.123Z,98784.47
2023-01-09T15:02:53.313Z,98781.03
2023-01-09T15:05:23.971Z,98783.72
2023-01-09T15:07:57.580Z,98786.56
2023-01-09T15:10:52.160Z,98783.81
2023-01-09T15:13:28.735Z,98794.50
2023-01-09T15:15:56.287Z,98795.56
2023-01-09T15:18:25.403Z,98785.41
2023-01-09T15:20:54.749Z,98789.22
2023-01-09T15:23:29.386Z,98787.69
2023-01-09T15:26:20.104Z,98786.44
2023-01-09T15:28:47.442Z,98791.78
2023-01-09T15:31:17.318Z,98792.47
2023-01-09T15:33:46.522Z,98791.69
2023-01-09T15:36:21.290Z,98787.50
2023-01-09T15:38:50.257Z,98777.72
2023-01-09T15:41:38.811Z,98775.19
2023-01-09T15:44:11.031Z,98775.84
2023-01-09T15:46:39.571Z,98772.28
2023-01-09T15:49:11.165Z,98769.78
2023-01-09T15:51:38.626Z,98760.88
2023-01-09T15:54:06.060Z,98758.94
2023-01-09T15:56:35.452Z,98746.44
2023-01-09T15:59:02.882Z,98739.81
2023-01-09T16:01:35.292Z,98732.84
2023-01-09T16:04:18.381Z,98742.34
2023-01-09T16:06:48.428Z,98732.75
2023-01-09T16:09:24.109Z,98741.19
2023-01-09T16:11:54.029Z,98736.81
2023-01-09T16:14:35.289Z,98736.41
2023-01-09T16:17:06.864Z,98733.88
2023-01-09T16:19:46.452Z,98734.66
2023-01-09T16:22:23.252Z,98733.66
2023-01-09T16:24:54.849Z,98735.41
2023-01-09T16:27:24.168Z,98732.75
2023-01-09T16:29:57.547Z,98725.94
2023-01-09T16:32:31.447Z,98722.47
2023-01-09T16:35:06.084Z,98724.03
2023-01-09T16:37:34.212Z,98726.44
2023-01-09T16:40:04.725Z,98725.63
2023-01-09T16:42:51.438Z,98722.06
2023-01-09T16:45:19.727Z,98727.16
2023-01-09T16:47:47.159Z,98722.03
2023-01-09T16:50:14.564Z,98724.75
2023-01-09T16:52:42.363Z,98724.22
2023-01-09T16:55:11.302Z,98722.44
2023-01-09T16:57:39.012Z,98711.88
2023-01-09T17:00:07.541Z,98719.25
2023-01-09T17:02:35.008Z,98713.53
2023-01-09T17:05:03.082Z,98712.75
2023-01-09T17:07:31.114Z,98710.94
2023-01-09T17:09:58.794Z,98708.50
2023-01-09T17:12:26.158Z,98708.47
2023-01-09T17:14:53.927Z,98717.09
2023-01-09T17:17:21.715Z,98718.69
2023-01-09T17:19:49.168Z,98717.91
2023-01-09T17:22:16.858Z,98714.28
2023-01-09T17:25:02.693Z,98715.25
2023-01-09T17:27:52.081Z,98718.50
2023-01-09T17:30:20.360Z,98718.63
2023-01-09T17:32:48.791Z,98704.38
2023-01-09T17:35:16.424Z,98706.00
2023-01-09T17:37:44.055Z,98711.47
2023-01-09T17:40:22.781Z,98703.13
2023-01-09T17:42:50.206Z,98695.94
2023-01-09T17:45:18.061Z,98691.81
2023-01-09T17:47:45.471Z,98686.97
2023-01-09T17:50:20.884Z,98686.06
2023-01-09T17:52:49.216Z,98676.38
2023-01-09T17:55:16.905Z,98678.34
2023-01-09T17:57:44.818Z,98683.63
2023-01-09T18:00:28.288Z,98690.37
2023-01-09T18:02:57.158Z,98686.16
2023-01-09T18:05:25.504Z,98691.44
2023-01-09T18:07:53.710Z,98680.81
2023-01-09T18:10:23.911Z,98677.38
2023-01-09T18:12:52.158Z,98672.31
2023-01-09T18:15:20.171Z,98674.16
2023-01-09T18:17:48.061Z,98675.69
2023-01-09T18:20:15.486Z,98671.53
2023-01-09T18:22:42.970Z,98673.91
2023-01-09T18:25:11.051Z,98672.41
2023-01-09T18:27:38.668Z,98660.81
2023-01-09T18:30:07.038Z,98659.66
2023-01-09T18:32:34.803Z,98664.03
2023-01-09T18:35:04.064Z,98664.03
2023-01-09T18:37:31.693Z,98663.25
2023-01-09T18:39:59.375Z,98653.81
2023-01-09T18:42:26.969Z,98645.09
2023-01-09T18:44:54.319Z,98643.63
2023-01-09T18:47:21.951Z,98640.62
2023-01-09T18:49:49.308Z,98647.56
2023-01-09T18:52:16.796Z,98652.72
2023-01-09T18:54:44.454Z,98642.78
2023-01-09T18:57:12.167Z,98648.00
2023-01-09T18:59:39.504Z,98646.94
2023-01-09T19:02:08.298Z,98640.81
2023-01-09T19:04:35.733Z,98629.19
2023-01-09T19:07:03.129Z,98630.31
2023-01-09T19:09:30.783Z,98635.75
2023-01-09T19:11:58.194Z,98637.25
2023-01-09T19:14:25.610Z,98635.34
2023-01-09T19:16:54.502Z,98639.03
2023-01-09T19:19:21.882Z,98629.63
2023-01-09T19:21:49.376Z,98617.12
2023-01-09T19:24:17.745Z,98619.81
2023-01-09T19:26:47.733Z,98615.47
2023-01-09T19:29:15.369Z,98618.59
2023-01-09T19:31:44.908Z,98619.25
2023-01-09T19:34:13.282Z,98621.78
2023-01-09T19:36:40.689Z,98625.25
2023-01-09T19:39:08.615Z,98620.59
2023-01-09T19:41:35.973Z,98625.62
2023-01-09T19:44:03.372Z,98624.66
2023-01-09T19:46:33.479Z,98617.59
2023-01-09T19:49:04.649Z,98604.50
2023-01-09T19:51:33.015Z,98609.53
2023-01-09T19:56:34.988Z,98603.66
2023-01-09T19:59:04.305Z,98600.16
2023-01-09T20:01:36.343Z,98610.84
2023-01-09T20:04:09.980Z,98600.44
2023-01-09T20:06:41.321Z,98600.25
2023-01-09T20:09:11.075Z,98597.66
2023-01-09T20:11:41.075Z,98590.50
2023-01-09T20:14:13.648Z,98582.03
2023-01-09T20:16:41.857Z,98591.28
2023-01-09T20:19:11.778Z,98592.34
2023-01-09T20:21:39.168Z,98588.88
2023-01-09T20:24:08.347Z,98576.16
2023-01-09T20:26:37.282Z,98576.16
2023-01-09T20:29:04.749Z,98578.13
2023-01-09T20:31:32.987Z,98577.66
2023-01-09T20:34:01.486Z,98566.34
2023-01-09T20:36:30.515Z,98563.84
2023-01-09T20:38:59.964Z,98561.09
2023-01-09T20:41:29.403Z,98561.16
2023-01-09T20:44:02.146Z,98562.88
2023-01-09T20:46:31.327Z,98551.63
2023-01-09T20:48:59.471Z,98563.62
2023-01-09T20:51:26.892Z,98555.31
2023-01-09T20:53:58.425Z,98557.62
2023-01-09T20:56:26.946Z,98552.31
2023-01-09T20:58:55.066Z,98551.84
2023-01-09T21:01:23.220Z,98552.41
2023-01-09T21:03:51.858Z,98554.78
2023-01-09T21:06:20.826Z,98558.94
2023-01-09T21:08:50.745Z,98550.91
2023-01-09T21:11:18.947Z,98549.91
2023-01-09T21:13:46.793Z,98554.13
2023-01-09T21:16:16.864Z,98545.28
2023-01-09T21:18:44.564Z,98552.34
2023-01-09T21:21:16.077Z,98554.19
2023-01-09T21:23:51.903Z,98554.09
2023-01-09T21:26:22.497Z,98554.72
2023-01-09T21:28:55.018Z,98561.56
2023-01-09T21:31:33.368Z,98548.28
2023-01-09T21:34:03.796Z,98561.44
2023-01-09T21:36:32.085Z,98554.78
2023-01-09T21:38:59.623Z,98556.56
2023-01-09T21:41:45.755Z,98556.97
2023-01-09T21:44:32.191Z,98566.44
2023-01-09T21:47:01.712Z,98565.47
2023-01-09T21:49:31.233Z,98568.97
2023-01-09T21:51:58.731Z,98560.91
2023-01-09T21:54:26.391Z,98557.03
2023-01-09T21:56:54.703Z,98553.59
2023-01-09T21:59:22.329Z,98555.47
2023-01-09T22:01:49.799Z,98557.97
2023-01-09T22:04:19.658Z,98554.59
2023-01-09T22:06:47.163Z,98551.84
2023-01-09T22:09:14.969Z,98560.37
2023-01-09T22:11:45.747Z,98556.22
2023-01-09T22:14:18.938Z,98560.00
2023-01-09T22:16:47.895Z,98557.97
2023-01-09T22:19:19.625Z,98566.16
2023-01-09T22:21:48.695Z,98565.19
2023-01-09T22:24:18.228Z,98562.31
2023-01-09T22:26:45.829Z,98565.00
2023-01-09T22:29:13.927Z,98569.53
2023-01-09T22:31:43.008Z,98565.97
2023-01-09T22:34:15.207Z,98562.66
2023-01-09T22:36:43.821Z,98561.81
2023-01-09T22:39:15.842Z,98564.59
2023-01-09T22:41:43.532Z,98575.31
2023-01-09T22:44:11.988Z,98569.19
2023-01-09T22:46:39.731Z,98562.41
2023-01-09T22:49:07.508Z,98569.13
2023-01-09T22:51:34.904Z,98566.53
2023-01-09T22:54:02.410Z,98562.59
2023-01-09T22:56:32.123Z,98565.19
2023-01-09T22:59:00.848Z,98565.28
2023-01-09T23:01:28.222Z,98566.16
2023-01-09T23:03:56.166Z,98568.66
2023-01-09T23:06:25.197Z,98569.28
2023-01-09T23:08:53.213Z,98562.59
2023-01-09T23:11:43.562Z,98558.97
2023-01-09T23:14:11.458Z,98563.59
2023-01-09T23:16:39.464Z,98549.59
2023-01-09T23:19:08.866Z,98554.91
2023-01-09T23:21:36.670Z,98563.25
2023-01-09T23:24:06.889Z,98563.06
2023-01-09T23:26:35.239Z,98557.97
2023-01-09T23:29:03.014Z,98557.66
2023-01-09T23:31:30.700Z,98563.75
2023-01-09T23:33:58.146Z,98552.44
2023-01-09T23:36:25.552Z,98556.00
2023-01-09T23:38:53.310Z,98562.97
2023-01-09T23:41:22.449Z,98553.06
2023-01-09T23:43:49.843Z,98554.13
2023-01-09T23:46:17.523Z,98559.56
2023-01-09T23:48:44.942Z,98546.31
2023-01-09T23:51:12.279Z,98556.03
2023-01-09T23:53:39.982Z,98540.25
2023-01-09T23:56:07.456Z,98542.91
2023-01-09T23:58:35.992Z,98563.84
